createdAt,value
2019-05-03T00:00:02.642Z,52.37
2019-05-03T00:01:02.893Z,79.76
2019-05-03T00:02:01.987Z,63.97
2019-05-03T00:03:02.672Z,70.42
2019-05-03T00:04:02.587Z,77.02
2019-05-03T00:05:02.448Z,52.37
2019-05-03T00:06:03.240Z,53.01
2019-05-03T00:07:02.757Z,52.53
2019-05-03T00:08:03.661Z,52.21
2019-05-03T00:09:02.871Z,56.56
2019-05-03T00:10:37.318Z,85.40
2019-05-03T00:11:03.151Z,53.66
2019-05-03T00:12:03.267Z,53.33
2019-05-03T00:13:03.528Z,52.37
2019-05-03T00:14:03.684Z,54.14
2019-05-03T00:15:03.820Z,51.72
2019-05-03T00:16:03.964Z,77.02
2019-05-03T00:17:04.128Z,78.79
2019-05-03T00:18:04.298Z,52.37
2019-05-03T00:19:04.446Z,74.77
2019-05-03T00:20:04.584Z,61.55
2019-05-03T00:21:04.723Z,52.69
2019-05-03T00:22:04.851Z,76.70
2019-05-03T00:23:06.937Z,52.37
2019-05-03T00:24:05.160Z,53.17
2019-05-03T00:25:08.309Z,77.34
2019-05-03T00:26:06.517Z,51.56
2019-05-03T00:27:05.668Z,53.17
2019-05-03T00:28:05.942Z,75.89
2019-05-03T00:29:05.951Z,57.20
2019-05-03T00:30:06.933Z,51.24
2019-05-03T00:31:06.300Z,52.05
2019-05-03T00:32:07.443Z,52.05
2019-05-03T00:33:06.586Z,53.01
2019-05-03T00:34:06.753Z,52.37
2019-05-03T00:35:07.429Z,52.21
2019-05-03T00:36:07.929Z,52.05
2019-05-03T00:37:07.315Z,52.05
2019-05-03T00:38:41.896Z,54.95
2019-05-03T00:39:07.598Z,71.22
2019-05-03T00:40:07.733Z,52.05
2019-05-03T00:41:07.879Z,52.21
2019-05-03T00:42:08.011Z,52.53
2019-05-03T00:43:08.192Z,53.33
2019-05-03T00:44:08.462Z,79.44
2019-05-03T00:45:08.513Z,51.72
2019-05-03T00:46:09.450Z,52.69
2019-05-03T00:47:08.827Z,52.69
2019-05-03T00:48:09.009Z,55.27
2019-05-03T00:49:09.453Z,77.83
2019-05-03T00:50:12.019Z,67.03
2019-05-03T00:51:09.462Z,53.33
2019-05-03T00:52:11.680Z,52.37
2019-05-03T00:53:11.717Z,72.99
2019-05-03T00:54:12.632Z,53.82
2019-05-03T00:55:17.053Z,51.40
2019-05-03T00:56:12.369Z,51.88
2019-05-03T00:57:12.120Z,68.80
2019-05-03T00:58:11.828Z,53.50
2019-05-03T00:59:12.744Z,56.24
2019-05-03T01:00:12.421Z,53.01
2019-05-03T01:01:12.962Z,52.05
2019-05-03T01:02:11.982Z,75.57
2019-05-03T01:03:12.658Z,60.59
2019-05-03T01:04:12.853Z,53.33
2019-05-03T01:05:12.085Z,73.48
2019-05-03T01:06:45.506Z,55.11
2019-05-03T01:07:12.349Z,50.76
2019-05-03T01:08:12.754Z,52.05
2019-05-03T01:09:13.700Z,52.69
2019-05-03T01:10:12.928Z,51.88
2019-05-03T01:11:13.047Z,52.53
2019-05-03T01:12:13.278Z,52.53
2019-05-03T01:13:13.472Z,52.05
2019-05-03T01:14:13.611Z,60.42
2019-05-03T01:15:13.749Z,65.90
2019-05-03T01:16:13.886Z,81.05
2019-05-03T01:17:14.986Z,57.04
2019-05-03T01:18:14.276Z,73.80
2019-05-03T01:19:14.468Z,75.09
2019-05-03T01:20:14.642Z,52.21
2019-05-03T01:21:15.477Z,52.85
2019-05-03T01:22:15.983Z,52.69
2019-05-03T01:23:15.209Z,52.85
2019-05-03T01:24:18.112Z,72.35
2019-05-03T01:25:15.598Z,61.39
2019-05-03T01:26:15.798Z,52.37
2019-05-03T01:27:15.991Z,54.14
2019-05-03T01:28:16.183Z,53.17
2019-05-03T01:29:16.384Z,52.21
2019-05-03T01:30:16.600Z,52.85
2019-05-03T01:31:16.760Z,53.82
2019-05-03T01:32:16.926Z,52.69
2019-05-03T01:33:17.981Z,53.17
2019-05-03T01:34:52.358Z,53.17
2019-05-03T01:35:17.465Z,51.40
2019-05-03T01:36:18.011Z,53.98
2019-05-03T01:37:18.495Z,78.47
2019-05-03T01:38:19.446Z,62.04
2019-05-03T01:39:19.214Z,56.88
2019-05-03T01:40:18.338Z,53.98
2019-05-03T01:41:18.505Z,52.85
2019-05-03T01:42:18.663Z,53.17
2019-05-03T01:43:18.816Z,73.64
2019-05-03T01:44:18.964Z,55.27
2019-05-03T01:45:20.009Z,54.30
2019-05-03T01:46:19.289Z,58.49
2019-05-03T01:47:19.427Z,52.37
2019-05-03T01:48:21.583Z,52.37
2019-05-03T01:49:20.506Z,52.85
2019-05-03T01:50:22.779Z,52.85
2019-05-03T01:51:21.913Z,52.21
2019-05-03T01:52:21.915Z,52.37
2019-05-03T01:53:21.626Z,78.31
2019-05-03T01:54:22.890Z,55.91
2019-05-03T01:55:22.698Z,77.67
2019-05-03T01:56:22.367Z,52.53
2019-05-03T01:57:22.351Z,52.53
2019-05-03T01:58:21.725Z,54.46
2019-05-03T01:59:22.771Z,72.99
2019-05-03T02:00:23.503Z,65.42
2019-05-03T02:01:23.014Z,72.35
2019-05-03T02:02:55.684Z,78.63
2019-05-03T02:03:22.427Z,56.24
2019-05-03T02:04:22.579Z,72.83
2019-05-03T02:05:22.763Z,75.25
2019-05-03T02:06:22.945Z,84.11
2019-05-03T02:07:23.147Z,71.06
2019-05-03T02:08:23.347Z,57.36
2019-05-03T02:09:24.030Z,82.34
2019-05-03T02:10:23.655Z,79.60
2019-05-03T02:11:23.803Z,83.95
2019-05-03T02:12:23.949Z,55.75
2019-05-03T02:13:24.115Z,75.25
2019-05-03T02:14:24.288Z,65.58
2019-05-03T02:15:24.463Z,75.09
2019-05-03T02:16:25.550Z,53.17
2019-05-03T02:17:24.788Z,61.71
2019-05-03T02:18:24.961Z,73.32
2019-05-03T02:19:25.125Z,76.70
2019-05-03T02:20:25.277Z,76.86
2019-05-03T02:21:26.030Z,78.15
2019-05-03T02:22:25.638Z,74.93
2019-05-03T02:23:25.781Z,76.38
2019-05-03T02:24:26.020Z,67.35
2019-05-03T02:25:26.170Z,78.15
2019-05-03T02:26:26.302Z,78.63
2019-05-03T02:27:27.033Z,65.10
2019-05-03T02:28:26.642Z,76.38
2019-05-03T02:29:26.796Z,79.44
2019-05-03T02:30:26.945Z,78.79
2019-05-03T02:32:02.971Z,81.05
2019-05-03T02:32:27.323Z,64.78
2019-05-03T02:33:27.453Z,67.35
2019-05-03T02:34:27.575Z,78.31
2019-05-03T02:35:27.738Z,57.85
2019-05-03T02:36:27.854Z,72.51
2019-05-03T02:37:28.003Z,71.70
2019-05-03T02:38:28.239Z,71.70
2019-05-03T02:39:28.377Z,80.24
2019-05-03T02:40:28.513Z,75.09
2019-05-03T02:41:28.679Z,64.78
2019-05-03T02:42:28.811Z,76.70
2019-05-03T02:43:28.928Z,81.21
2019-05-03T02:44:29.059Z,76.70
2019-05-03T02:45:29.301Z,72.83
2019-05-03T02:46:29.489Z,79.76
2019-05-03T02:47:30.559Z,76.86
2019-05-03T02:48:29.768Z,81.69
2019-05-03T02:49:30.569Z,78.15
2019-05-03T02:50:30.562Z,58.49
2019-05-03T02:51:30.330Z,67.35
2019-05-03T02:52:31.062Z,78.31
2019-05-03T02:53:30.661Z,76.70
2019-05-03T02:54:31.559Z,78.96
2019-05-03T02:55:31.063Z,77.02
2019-05-03T02:56:31.572Z,73.64
2019-05-03T02:57:31.447Z,80.24
2019-05-03T02:58:31.590Z,76.22
2019-05-03T03:00:06.980Z,84.59
2019-05-03T03:00:31.922Z,75.09
2019-05-03T03:01:32.088Z,78.31
2019-05-03T03:02:32.213Z,77.99
2019-05-03T03:03:35.585Z,78.15
2019-05-03T03:04:35.146Z,77.50
2019-05-03T03:05:35.168Z,73.80
2019-05-03T03:06:33.094Z,78.63
2019-05-03T03:07:33.085Z,74.77
2019-05-03T03:08:36.492Z,79.92
2019-05-03T03:09:36.019Z,80.08
2019-05-03T03:10:35.668Z,81.37
2019-05-03T03:11:35.574Z,82.02
2019-05-03T03:12:35.659Z,79.44
2019-05-03T03:13:36.820Z,78.31
2019-05-03T03:14:36.199Z,79.76
2019-05-03T03:15:36.381Z,80.73
2019-05-03T03:16:36.596Z,83.14
2019-05-03T03:17:36.468Z,80.89
2019-05-03T03:18:36.581Z,80.57
2019-05-03T03:19:36.178Z,80.57
2019-05-03T03:20:36.087Z,84.59
2019-05-03T03:21:36.199Z,79.92
2019-05-03T03:22:36.753Z,81.21
2019-05-03T03:23:35.866Z,77.34
2019-05-03T03:24:36.316Z,78.63
2019-05-03T03:25:37.165Z,82.02
2019-05-03T03:26:42.435Z,80.24
2019-05-03T03:28:05.452Z,78.15
2019-05-03T03:28:37.126Z,77.50
2019-05-03T03:29:36.727Z,82.82
2019-05-03T03:30:37.902Z,80.57
2019-05-03T03:31:38.615Z,81.86
2019-05-03T03:32:38.900Z,80.89
2019-05-03T03:33:40.292Z,79.92
2019-05-03T03:34:39.400Z,79.44
2019-05-03T03:35:38.976Z,85.24
2019-05-03T03:36:57.910Z,80.41
2019-05-03T03:37:40.184Z,81.21
2019-05-03T03:38:38.313Z,81.69
2019-05-03T03:39:38.478Z,79.92
2019-05-03T03:40:39.625Z,82.18
2019-05-03T03:41:38.861Z,82.02
2019-05-03T03:42:39.613Z,82.82
2019-05-03T03:43:39.289Z,80.41
2019-05-03T03:44:39.427Z,84.76
2019-05-03T03:45:39.600Z,79.92
2019-05-03T03:46:40.610Z,80.89
2019-05-03T03:47:40.623Z,83.47
2019-05-03T03:48:40.173Z,82.50
2019-05-03T03:49:41.346Z,81.37
2019-05-03T03:50:41.107Z,81.86
2019-05-03T03:51:41.661Z,82.50
2019-05-03T03:52:40.787Z,82.18
2019-05-03T03:53:41.009Z,81.21
2019-05-03T03:54:41.199Z,80.41
2019-05-03T03:56:16.069Z,82.66
2019-05-03T03:56:55.969Z,77.50
2019-05-03T03:57:46.537Z,82.02
2019-05-03T03:58:41.948Z,79.60
2019-05-03T03:59:45.478Z,81.37
2019-05-03T04:00:46.184Z,80.73
2019-05-03T04:01:42.470Z,82.50
2019-05-03T04:02:42.661Z,83.14
2019-05-03T04:03:45.760Z,86.37
2019-05-03T04:04:45.018Z,82.02
2019-05-03T04:05:46.702Z,80.57
2019-05-03T04:06:46.403Z,80.08
2019-05-03T04:07:46.200Z,78.96
2019-05-03T04:08:45.362Z,80.08
2019-05-03T04:09:45.705Z,82.66
2019-05-03T04:10:46.353Z,81.69
2019-05-03T04:11:46.283Z,80.89
2019-05-03T04:12:46.145Z,81.37
2019-05-03T04:13:45.248Z,80.41
2019-05-03T04:14:45.785Z,81.05
2019-05-03T04:15:45.511Z,81.86
2019-05-03T04:16:46.157Z,81.69
2019-05-03T04:17:45.689Z,81.21
2019-05-03T04:18:46.603Z,79.12
2019-05-03T04:19:45.861Z,82.34
2019-05-03T04:20:46.051Z,78.31
2019-05-03T04:21:47.146Z,81.21
2019-05-03T04:22:46.414Z,82.50
2019-05-03T04:24:19.559Z,82.50
2019-05-03T04:24:46.684Z,74.28
2019-05-03T04:25:46.840Z,82.18
2019-05-03T04:26:47.005Z,79.92
2019-05-03T04:27:47.149Z,80.08
2019-05-03T04:28:47.315Z,80.73
2019-05-03T04:29:48.169Z,82.50
2019-05-03T04:30:48.174Z,80.73
2019-05-03T04:31:48.661Z,82.50
2019-05-03T04:32:47.938Z,81.05
2019-05-03T04:33:48.101Z,82.98
2019-05-03T04:34:48.269Z,80.08
2019-05-03T04:35:49.167Z,81.37
2019-05-03T04:36:48.676Z,80.24
2019-05-03T04:37:48.811Z,82.50
2019-05-03T04:38:48.976Z,80.57
2019-05-03T04:39:49.130Z,82.66
2019-05-03T04:40:50.174Z,81.05
2019-05-03T04:41:49.447Z,79.92
2019-05-03T04:42:49.690Z,79.28
2019-05-03T04:43:49.730Z,82.66
2019-05-03T04:44:50.670Z,79.12
2019-05-03T04:45:50.086Z,86.21
2019-05-03T04:46:54.844Z,78.79
2019-05-03T04:47:50.468Z,82.50
2019-05-03T04:48:51.161Z,82.02
2019-05-03T04:49:50.789Z,82.18
2019-05-03T04:50:50.920Z,79.12
2019-05-03T04:52:25.914Z,82.98
2019-05-03T04:52:51.312Z,78.96
2019-05-03T04:53:52.476Z,82.50
2019-05-03T04:54:51.601Z,82.98
2019-05-03T04:55:52.689Z,80.08
2019-05-03T04:56:51.982Z,79.92
2019-05-03T04:57:55.748Z,82.18
2019-05-03T04:58:52.683Z,82.66
2019-05-03T04:59:52.547Z,81.37
2019-05-03T05:00:55.402Z,82.98
2019-05-03T05:01:55.705Z,81.37
2019-05-03T05:02:55.149Z,84.76
2019-05-03T05:03:55.871Z,81.53
2019-05-03T05:04:55.607Z,84.59
2019-05-03T05:05:55.503Z,82.98
2019-05-03T05:06:55.465Z,81.69
2019-05-03T05:07:56.001Z,85.24
2019-05-03T05:08:55.289Z,81.69
2019-05-03T05:09:56.166Z,82.98
2019-05-03T05:10:56.016Z,80.57
2019-05-03T05:11:55.776Z,83.14
2019-05-03T05:12:55.657Z,82.50
2019-05-03T05:13:56.205Z,83.79
2019-05-03T05:14:56.439Z,81.05
2019-05-03T05:15:56.465Z,78.63
2019-05-03T05:16:56.663Z,79.92
2019-05-03T05:17:56.414Z,83.47
2019-05-03T05:18:57.074Z,81.86
2019-05-03T05:19:56.293Z,80.73
2019-05-03T05:20:56.406Z,81.37
2019-05-03T05:21:57.171Z,82.18
2019-05-03T05:22:56.781Z,80.24
2019-05-03T05:23:56.903Z,80.41
2019-05-03T05:24:57.188Z,85.08
2019-05-03T05:25:57.319Z,79.76
2019-05-03T05:26:57.436Z,82.02
2019-05-03T05:27:57.681Z,81.69
2019-05-03T05:28:57.811Z,81.37
2019-05-03T05:29:57.916Z,81.53
2019-05-03T05:30:58.153Z,82.82
2019-05-03T05:31:58.420Z,79.76
2019-05-03T05:32:58.522Z,83.14
2019-05-03T05:33:58.759Z,82.50
2019-05-03T05:34:59.005Z,82.50
2019-05-03T05:35:59.242Z,83.63
2019-05-03T05:36:59.447Z,79.28
2019-05-03T05:37:59.682Z,79.28
2019-05-03T05:38:59.893Z,83.47
2019-05-03T05:40:00.671Z,78.31
2019-05-03T05:41:00.287Z,80.08
2019-05-03T05:42:00.390Z,78.96
2019-05-03T05:43:01.167Z,80.24
2019-05-03T05:44:00.723Z,82.98
2019-05-03T05:45:34.974Z,79.44
2019-05-03T05:46:01.113Z,77.67
2019-05-03T05:47:01.318Z,82.66
2019-05-03T05:48:01.475Z,78.63
2019-05-03T05:49:01.706Z,80.73
2019-05-03T05:50:04.861Z,78.63
2019-05-03T05:51:01.964Z,82.02
2019-05-03T05:52:02.090Z,83.14
2019-05-03T05:53:02.224Z,81.21
2019-05-03T05:54:05.108Z,82.66
2019-05-03T05:55:04.546Z,84.43
2019-05-03T05:56:04.943Z,81.69
2019-05-03T05:57:05.423Z,78.15
2019-05-03T05:58:07.538Z,80.89
2019-05-03T05:59:05.270Z,80.41
2019-05-03T06:00:04.911Z,80.89
2019-05-03T06:01:05.485Z,80.73
2019-05-03T06:02:04.989Z,80.89
2019-05-03T06:03:05.191Z,81.05
2019-05-03T06:04:05.698Z,82.98
2019-05-03T06:05:04.817Z,81.53
2019-05-03T06:06:05.485Z,84.59
2019-05-03T06:07:05.201Z,81.37
2019-05-03T06:08:04.936Z,79.92
2019-05-03T06:09:05.198Z,80.24
2019-05-03T06:10:06.214Z,82.02
2019-05-03T06:11:05.436Z,80.89
2019-05-03T06:12:05.566Z,80.24
2019-05-03T06:13:39.098Z,81.86
2019-05-03T06:14:05.952Z,77.67
2019-05-03T06:15:06.089Z,83.79
2019-05-03T06:16:06.241Z,78.47
2019-05-03T06:17:06.378Z,80.41
2019-05-03T06:18:06.513Z,83.47
2019-05-03T06:19:07.238Z,84.27
2019-05-03T06:20:07.743Z,79.76
2019-05-03T06:21:07.088Z,81.86
2019-05-03T06:22:07.280Z,82.66
2019-05-03T06:23:08.258Z,81.21
2019-05-03T06:24:07.625Z,82.02
2019-05-03T06:25:08.743Z,79.28
2019-05-03T06:26:08.733Z,81.69
2019-05-03T06:27:08.094Z,80.73
2019-05-03T06:28:17.697Z,82.18
2019-05-03T06:29:10.459Z,77.83
2019-05-03T06:30:08.652Z,80.08
2019-05-03T06:31:08.882Z,81.05
2019-05-03T06:32:09.135Z,82.18
2019-05-03T06:33:09.276Z,78.79
2019-05-03T06:34:09.393Z,80.73
2019-05-03T06:35:09.640Z,84.43
2019-05-03T06:36:10.246Z,82.98
2019-05-03T06:37:09.994Z,83.31
2019-05-03T06:38:10.141Z,82.50
2019-05-03T06:39:10.273Z,82.98
2019-05-03T06:40:10.507Z,79.28
2019-05-03T06:41:10.769Z,80.73
2019-05-03T06:42:16.020Z,82.34
2019-05-03T06:43:15.599Z,81.53
2019-05-03T06:44:14.469Z,81.69
2019-05-03T06:45:11.906Z,82.18
2019-05-03T06:46:12.710Z,81.53
2019-05-03T06:47:12.257Z,81.69
2019-05-03T06:48:12.152Z,86.69
2019-05-03T06:49:15.169Z,79.76
2019-05-03T06:50:14.503Z,79.76
2019-05-03T06:51:19.716Z,82.02
2019-05-03T06:52:19.587Z,83.47
2019-05-03T06:53:15.588Z,81.69
2019-05-03T06:54:15.518Z,88.95
2019-05-03T06:55:14.556Z,82.02
2019-05-03T06:56:19.311Z,80.89
2019-05-03T06:57:14.852Z,79.28
2019-05-03T06:58:16.517Z,82.02
2019-05-03T06:59:15.111Z,83.31
2019-05-03T07:00:15.441Z,80.41
2019-05-03T07:01:16.248Z,82.02
2019-05-03T07:02:14.902Z,78.47
2019-05-03T07:03:16.260Z,83.79
2019-05-03T07:04:15.293Z,80.73
2019-05-03T07:05:15.987Z,81.37
2019-05-03T07:06:15.210Z,81.53
2019-05-03T07:07:15.578Z,82.18
2019-05-03T07:08:16.541Z,81.53
2019-05-03T07:09:16.255Z,80.08
2019-05-03T07:10:16.775Z,81.53
2019-05-03T07:11:16.740Z,79.28
2019-05-03T07:12:16.353Z,78.79
2019-05-03T07:13:17.261Z,79.44
2019-05-03T07:14:16.631Z,76.86
2019-05-03T07:15:16.794Z,82.02
2019-05-03T07:16:17.759Z,81.21
2019-05-03T07:17:17.123Z,80.57
2019-05-03T07:18:17.293Z,81.37
2019-05-03T07:19:17.441Z,79.28
2019-05-03T07:20:17.596Z,80.08
2019-05-03T07:21:18.264Z,82.50
2019-05-03T07:22:17.868Z,81.21
2019-05-03T07:23:17.986Z,79.60
2019-05-03T07:24:18.134Z,78.96
2019-05-03T07:25:18.302Z,80.57
2019-05-03T07:26:18.467Z,79.76
2019-05-03T07:27:19.238Z,79.76
2019-05-03T07:28:18.720Z,84.11
2019-05-03T07:29:19.742Z,80.24
2019-05-03T07:30:19.077Z,78.47
2019-05-03T07:31:19.260Z,79.28
2019-05-03T07:32:20.246Z,81.21
2019-05-03T07:33:19.624Z,83.14
2019-05-03T07:34:20.751Z,80.24
2019-05-03T07:35:20.263Z,80.41
2019-05-03T07:36:20.126Z,82.18
2019-05-03T07:37:20.341Z,78.79
2019-05-03T07:38:20.579Z,77.18
2019-05-03T07:39:20.715Z,83.47
2019-05-03T07:40:21.258Z,81.86
2019-05-03T07:41:24.461Z,77.34
2019-05-03T07:42:22.192Z,78.63
2019-05-03T07:43:21.399Z,81.69
2019-05-03T07:44:21.544Z,78.63
2019-05-03T07:45:21.669Z,81.86
2019-05-03T07:46:24.591Z,79.92
2019-05-03T07:47:21.950Z,82.34
2019-05-03T07:48:22.187Z,82.34
2019-05-03T07:49:22.309Z,79.76
2019-05-03T07:50:25.557Z,77.67
2019-05-03T07:51:24.670Z,79.76
2019-05-03T07:52:22.773Z,81.37
2019-05-03T07:53:25.008Z,78.31
2019-05-03T07:54:24.797Z,79.76
2019-05-03T07:55:24.968Z,78.47
2019-05-03T07:56:25.354Z,80.57
2019-05-03T07:57:25.508Z,80.41
2019-05-03T07:58:25.289Z,82.98
2019-05-03T07:59:25.093Z,81.53
2019-05-03T08:00:25.759Z,82.18
2019-05-03T08:01:25.169Z,80.08
2019-05-03T08:02:27.500Z,85.24
2019-05-03T08:03:25.901Z,81.21
2019-05-03T08:04:25.540Z,80.57
2019-05-03T08:05:26.261Z,80.73
2019-05-03T08:06:25.490Z,79.12
2019-05-03T08:07:25.902Z,79.92
2019-05-03T08:08:26.825Z,80.57
2019-05-03T08:09:26.044Z,82.66
2019-05-03T08:10:26.213Z,78.79
2019-05-03T08:11:27.259Z,82.50
2019-05-03T08:12:26.512Z,81.05
2019-05-03T08:13:27.260Z,80.89
2019-05-03T08:14:26.877Z,81.37
2019-05-03T08:15:27.283Z,81.69
2019-05-03T08:16:27.137Z,84.92
2019-05-03T08:17:27.267Z,85.40
2019-05-03T08:18:28.255Z,78.15
2019-05-03T08:19:27.638Z,80.08
2019-05-03T08:20:28.272Z,80.73
2019-05-03T08:21:27.887Z,77.18
2019-05-03T08:22:28.112Z,79.44
2019-05-03T08:23:30.306Z,82.02
2019-05-03T08:24:30.249Z,80.24
2019-05-03T08:25:28.595Z,78.31
2019-05-03T08:26:28.726Z,78.63
2019-05-03T08:27:28.881Z,79.92
2019-05-03T08:28:29.047Z,83.14
2019-05-03T08:29:29.232Z,80.89
2019-05-03T08:30:29.413Z,79.12
2019-05-03T08:31:29.597Z,80.08
2019-05-03T08:32:30.255Z,81.21
2019-05-03T08:34:04.820Z,80.89
2019-05-03T08:34:30.067Z,78.31
2019-05-03T08:35:30.195Z,81.21
2019-05-03T08:36:30.358Z,80.08
2019-05-03T08:37:30.495Z,79.76
2019-05-03T08:38:30.631Z,81.53
2019-05-03T08:39:31.278Z,79.60
2019-05-03T08:40:30.925Z,80.73
2019-05-03T08:41:31.060Z,80.73
2019-05-03T08:42:31.204Z,77.34
2019-05-03T08:43:31.348Z,79.28
2019-05-03T08:44:32.269Z,82.82
2019-05-03T08:45:31.646Z,91.36
2019-05-03T08:46:31.782Z,82.66
2019-05-03T08:47:31.942Z,79.76
2019-05-03T08:48:35.228Z,82.50
2019-05-03T08:49:34.563Z,79.92
2019-05-03T08:50:34.778Z,79.92
2019-05-03T08:51:32.734Z,79.76
2019-05-03T08:52:34.794Z,79.76
2019-05-03T08:53:35.597Z,82.50
2019-05-03T08:54:34.739Z,81.69
2019-05-03T08:55:35.222Z,80.08
2019-05-03T08:56:34.881Z,78.47
2019-05-03T08:57:35.442Z,84.59
2019-05-03T08:58:35.082Z,80.57
2019-05-03T08:59:35.788Z,81.21
2019-05-03T09:00:35.503Z,81.53
2019-05-03T09:03:41.300Z,81.37
2019-05-03T09:04:43.057Z,79.12
2019-05-03T09:05:40.798Z,81.53
2019-05-03T09:06:41.031Z,92.49
2019-05-03T09:07:41.286Z,77.34
2019-05-03T09:08:41.392Z,79.44
2019-05-03T09:09:41.616Z,79.28
2019-05-03T09:10:41.836Z,83.63
2019-05-03T09:11:42.061Z,77.67
2019-05-03T09:12:42.306Z,78.79
2019-05-03T09:13:42.530Z,82.02
2019-05-03T09:14:46.370Z,80.08
2019-05-03T09:15:44.603Z,79.76
2019-05-03T09:16:44.758Z,79.60
2019-05-03T09:17:44.697Z,82.34
2019-05-03T09:18:45.381Z,82.50
2019-05-03T09:19:45.393Z,81.53
2019-05-03T09:20:44.786Z,79.92
2019-05-03T09:21:45.380Z,78.15
2019-05-03T09:22:45.301Z,77.83
2019-05-03T09:23:45.461Z,81.05
2019-05-03T09:24:45.698Z,78.79
2019-05-03T09:25:45.980Z,79.92
2019-05-03T09:26:47.011Z,80.41
2019-05-03T09:27:46.922Z,77.18
2019-05-03T09:28:46.431Z,80.57
2019-05-03T09:29:46.574Z,77.50
2019-05-03T09:30:47.422Z,82.02
2019-05-03T09:31:46.930Z,77.99
2019-05-03T09:32:47.084Z,79.12
2019-05-03T09:33:47.254Z,82.98
2019-05-03T09:34:47.380Z,78.31
2019-05-03T09:35:48.426Z,82.66
2019-05-03T09:36:50.328Z,76.86
2019-05-03T09:37:47.890Z,80.08
2019-05-03T09:38:48.026Z,80.24
2019-05-03T09:39:48.948Z,81.21
2019-05-03T09:40:48.329Z,77.50
2019-05-03T09:41:48.433Z,78.96
2019-05-03T09:42:48.542Z,74.12
2019-05-03T09:43:48.796Z,77.02
2019-05-03T09:44:48.938Z,79.92
2019-05-03T09:45:49.929Z,79.12
2019-05-03T09:46:49.933Z,77.67
2019-05-03T09:47:49.387Z,77.99
2019-05-03T09:48:50.459Z,78.79
2019-05-03T09:49:49.716Z,78.96
2019-05-03T09:50:49.831Z,78.47
2019-05-03T09:51:49.953Z,78.96
2019-05-03T09:52:50.176Z,82.50
2019-05-03T09:53:50.928Z,82.34
2019-05-03T09:54:51.431Z,77.99
2019-05-03T09:55:50.674Z,78.63
2019-05-03T09:56:55.921Z,77.67
2019-05-03T09:57:53.082Z,79.60
2019-05-03T09:58:51.924Z,79.28
2019-05-03T09:59:57.144Z,81.37
2019-05-03T10:00:55.539Z,80.41
2019-05-03T10:01:51.801Z,81.53
2019-05-03T10:02:51.973Z,78.63
2019-05-03T10:03:52.120Z,80.08
2019-05-03T10:04:55.245Z,85.56
2019-05-03T10:05:52.488Z,80.08
2019-05-03T10:06:54.748Z,80.73
2019-05-03T10:07:52.768Z,79.28
2019-05-03T10:08:52.902Z,80.73
2019-05-03T10:09:55.289Z,79.60
2019-05-03T10:10:53.927Z,79.92
2019-05-03T10:11:55.156Z,78.79
2019-05-03T10:12:55.070Z,78.96
2019-05-03T10:13:56.436Z,79.92
2019-05-03T10:14:55.060Z,78.63
2019-05-03T10:15:54.917Z,78.15
2019-05-03T10:16:55.270Z,81.05
2019-05-03T10:17:55.457Z,81.37
2019-05-03T10:18:56.452Z,81.37
2019-05-03T10:19:54.898Z,79.92
2019-05-03T10:20:56.095Z,79.60
2019-05-03T10:21:56.270Z,79.28
2019-05-03T10:22:55.516Z,79.60
2019-05-03T10:23:55.645Z,78.47
2019-05-03T10:24:55.768Z,78.63
2019-05-03T10:26:29.418Z,82.02
2019-05-03T10:26:56.955Z,75.73
2019-05-03T10:27:56.284Z,79.12
2019-05-03T10:28:56.421Z,78.63
2019-05-03T10:30:09.558Z,79.44
2019-05-03T10:30:58.870Z,79.92
2019-05-03T10:31:57.469Z,82.02
2019-05-03T10:32:57.234Z,81.69
2019-05-03T10:33:57.350Z,83.79
2019-05-03T10:34:57.499Z,77.99
2019-05-03T10:35:57.620Z,81.69
2019-05-03T10:36:57.757Z,74.93
2019-05-03T10:37:57.861Z,78.79
2019-05-03T10:38:58.015Z,79.92
2019-05-03T10:39:58.133Z,77.18
2019-05-03T10:40:58.965Z,77.34
2019-05-03T10:41:58.440Z,79.28
2019-05-03T10:42:59.465Z,79.76
2019-05-03T10:43:58.738Z,75.57
2019-05-03T10:44:58.892Z,77.99
2019-05-03T10:45:59.056Z,81.53
2019-05-03T10:46:59.237Z,78.96
2019-05-03T10:47:59.965Z,76.54
2019-05-03T10:48:59.628Z,79.60
2019-05-03T10:49:59.789Z,82.98
2019-05-03T10:50:59.976Z,79.12
2019-05-03T10:52:00.144Z,84.59
2019-05-03T10:53:00.295Z,84.43
2019-05-03T10:54:35.793Z,80.89
2019-05-03T10:55:00.592Z,77.02
2019-05-03T10:56:00.738Z,78.31
2019-05-03T10:57:00.890Z,79.44
2019-05-03T10:58:01.054Z,79.60
2019-05-03T10:59:01.185Z,79.12
2019-05-03T11:00:01.337Z,76.86
2019-05-03T11:01:01.493Z,78.15
2019-05-03T11:02:01.605Z,83.14
2019-05-03T11:03:02.479Z,83.47
2019-05-03T11:04:01.943Z,77.99
2019-05-03T11:05:02.081Z,81.53
2019-05-03T11:06:02.494Z,77.83
2019-05-03T11:07:02.401Z,75.89
2019-05-03T11:08:02.569Z,77.02
2019-05-03T11:09:02.717Z,75.89
2019-05-03T11:10:02.830Z,82.82
2019-05-03T11:11:02.989Z,79.12
2019-05-03T11:12:05.205Z,79.60
2019-05-03T11:13:05.768Z,78.15
2019-05-03T11:14:05.551Z,78.15
2019-05-03T11:15:03.662Z,77.50
2019-05-03T11:16:05.615Z,77.83
2019-05-03T11:17:05.651Z,75.25
2019-05-03T11:18:05.589Z,81.21
2019-05-03T11:19:05.475Z,82.50
2019-05-03T11:20:05.515Z,76.86
2019-05-03T11:21:05.494Z,77.83
2019-05-03T11:22:05.469Z,82.02
2019-05-03T11:23:06.230Z,77.02
2019-05-03T11:24:05.350Z,79.28
2019-05-03T11:25:05.525Z,75.41
2019-05-03T11:26:05.675Z,77.34
2019-05-03T11:27:05.825Z,80.24
2019-05-03T11:28:06.488Z,80.24
2019-05-03T11:29:06.095Z,76.70
2019-05-03T11:30:09.185Z,77.83
2019-05-03T11:31:07.006Z,78.31
2019-05-03T11:32:09.267Z,74.60
2019-05-03T11:33:07.781Z,80.24
2019-05-03T11:34:06.872Z,77.67
2019-05-03T11:35:06.995Z,77.67
2019-05-03T11:36:07.126Z,78.31
2019-05-03T11:37:07.278Z,81.53
2019-05-03T11:38:08.002Z,80.24
2019-05-03T11:39:07.684Z,80.57
2019-05-03T11:40:08.495Z,77.50
2019-05-03T11:41:07.983Z,78.63
2019-05-03T11:42:08.113Z,77.34
2019-05-03T11:43:08.233Z,79.28
2019-05-03T11:44:09.555Z,79.44
2019-05-03T11:45:09.498Z,76.54
2019-05-03T11:46:08.881Z,79.92
2019-05-03T11:47:09.002Z,81.21
2019-05-03T11:48:09.253Z,88.14
2019-05-03T11:49:09.999Z,77.02
2019-05-03T11:50:09.617Z,95.55
2019-05-03T11:51:10.018Z,76.54
2019-05-03T11:52:09.935Z,75.73
2019-05-03T11:53:10.136Z,77.18
2019-05-03T11:54:10.298Z,78.79
2019-05-03T11:55:11.981Z,82.66
2019-05-03T11:56:12.204Z,76.38
2019-05-03T11:57:10.854Z,79.12
2019-05-03T11:58:11.003Z,78.31
2019-05-03T11:59:11.137Z,76.05
2019-05-03T12:00:11.284Z,77.50
2019-05-03T12:01:16.192Z,77.18
2019-05-03T12:02:15.322Z,78.47
2019-05-03T12:03:11.852Z,78.79
2019-05-03T12:04:11.962Z,78.47
2019-05-03T12:05:12.103Z,76.05
2019-05-03T12:06:12.540Z,78.63
2019-05-03T12:07:12.438Z,76.86
2019-05-03T12:08:14.627Z,81.53
2019-05-03T12:09:12.713Z,86.69
2019-05-03T12:10:26.682Z,77.34
2019-05-03T12:11:15.214Z,78.47
2019-05-03T12:12:15.231Z,77.99
2019-05-03T12:13:15.800Z,76.54
2019-05-03T12:14:15.510Z,77.34
2019-05-03T12:15:15.105Z,76.54
2019-05-03T12:16:21.288Z,77.83
2019-05-03T12:17:20.939Z,76.86
2019-05-03T12:18:16.955Z,77.99
2019-05-03T12:19:19.794Z,76.70
2019-05-03T12:20:18.589Z,74.12
2019-05-03T12:21:17.886Z,74.60
2019-05-03T12:22:16.766Z,78.47
2019-05-03T12:23:16.923Z,92.97
2019-05-03T12:24:16.747Z,76.05
2019-05-03T12:25:16.994Z,84.76
2019-05-03T12:26:17.618Z,76.22
2019-05-03T12:27:16.902Z,76.70
2019-05-03T12:28:16.102Z,80.89
2019-05-03T12:29:16.221Z,76.86
2019-05-03T12:30:16.359Z,75.25
2019-05-03T12:31:29.565Z,80.24
2019-05-03T12:32:17.722Z,76.86
2019-05-03T12:33:16.948Z,74.77
2019-05-03T12:34:17.063Z,77.34
2019-05-03T12:35:17.307Z,76.54
2019-05-03T12:36:17.570Z,78.63
2019-05-03T12:37:17.694Z,80.41
2019-05-03T12:38:17.804Z,76.54
2019-05-03T12:39:26.658Z,76.86
2019-05-03T12:40:20.122Z,75.25
2019-05-03T12:41:18.317Z,75.89
2019-05-03T12:42:18.949Z,75.41
2019-05-03T12:43:19.762Z,77.34
2019-05-03T12:44:19.527Z,77.34
2019-05-03T12:45:19.523Z,75.73
2019-05-03T12:46:20.025Z,80.24
2019-05-03T12:47:22.120Z,77.18
2019-05-03T12:48:19.491Z,78.47
2019-05-03T12:49:20.510Z,75.25
2019-05-03T12:50:19.854Z,78.31
2019-05-03T12:51:20.025Z,79.60
2019-05-03T12:52:20.936Z,75.25
2019-05-03T12:53:21.995Z,73.32
2019-05-03T12:54:21.545Z,82.82
2019-05-03T12:55:20.619Z,85.56
2019-05-03T12:56:23.513Z,81.69